sensor_id;sensor_type;location;lat;lon;timestamp;P1;durP1;ratioP1;P2;durP2;ratioP2
35326;SDS011;21436;52.348;20.928;2023-04-24T00:02:16;23.15;;;11.40;;
35326;SDS011;21436;52.348;20.928;2023-04-24T00:04:44;22.55;;;12.77;;
35326;SDS011;21436;52.348;20.928;2023-04-24T00:07:11;21.23;;;11.02;;
35326;SDS011;21436;52.348;20.928;2023-04-24T00:09:40;21.25;;;11.57;;
35326;SDS011;21436;52.348;20.928;2023-04-24T00:12:08;21.58;;;12.25;;
35326;SDS011;21436;52.348;20.928;2023-04-24T00:14:35;18.73;;;10.88;;
35326;SDS011;21436;52.348;20.928;2023-04-24T00:17:02;22.38;;;12.15;;
35326;SDS011;21436;52.348;20.928;2023-04-24T00:19:30;59.42;;;29.45;;
35326;SDS011;21436;52.348;20.928;2023-04-24T00:21:57;41.10;;;20.67;;
35326;SDS011;21436;52.348;20.928;2023-04-24T00:24:25;26.30;;;14.52;;
35326;SDS011;21436;52.348;20.928;2023-04-24T00:26:52;19.75;;;12.70;;
35326;SDS011;21436;52.348;20.928;2023-04-24T00:29:20;21.92;;;12.85;;
35326;SDS011;21436;52.348;20.928;2023-04-24T00:31:47;34.28;;;17.88;;
35326;SDS011;21436;52.348;20.928;2023-04-24T00:34:15;29.63;;;14.93;;
35326;SDS011;21436;52.348;20.928;2023-04-24T00:36:42;18.25;;;11.52;;
35326;SDS011;21436;52.348;20.928;2023-04-24T00:39:10;18.73;;;11.32;;
35326;SDS011;21436;52.348;20.928;2023-04-24T00:41:37;23.60;;;12.95;;
35326;SDS011;21436;52.348;20.928;2023-04-24T00:44:05;23.58;;;12.98;;
35326;SDS011;21436;52.348;20.928;2023-04-24T00:46:32;21.75;;;12.60;;
35326;SDS011;21436;52.348;20.928;2023-04-24T00:49:00;20.52;;;12.38;;
35326;SDS011;21436;52.348;20.928;2023-04-24T00:51:27;22.65;;;12.95;;
35326;SDS011;21436;52.348;20.928;2023-04-24T00:53:55;19.23;;;11.75;;
35326;SDS011;21436;52.348;20.928;2023-04-24T00:56:22;46.17;;;23.73;;
35326;SDS011;21436;52.348;20.928;2023-04-24T00:58:50;49.70;;;23.50;;
35326;SDS011;21436;52.348;20.928;2023-04-24T01:01:21;18.67;;;12.93;;
35326;SDS011;21436;52.348;20.928;2023-04-24T01:03:50;34.53;;;14.02;;
35326;SDS011;21436;52.348;20.928;2023-04-24T01:06:18;26.83;;;12.98;;
35326;SDS011;21436;52.348;20.928;2023-04-24T01:08:47;22.33;;;11.88;;
35326;SDS011;21436;52.348;20.928;2023-04-24T01:11:14;19.75;;;12.07;;
35326;SDS011;21436;52.348;20.928;2023-04-24T01:13:43;23.15;;;13.10;;
35326;SDS011;21436;52.348;20.928;2023-04-24T01:16:11;21.23;;;12.95;;
35326;SDS011;21436;52.348;20.928;2023-04-24T01:18:39;18.95;;;12.60;;
35326;SDS011;21436;52.348;20.928;2023-04-24T01:21:07;19.35;;;12.20;;
35326;SDS011;21436;52.348;20.928;2023-04-24T01:23:35;23.63;;;12.27;;
35326;SDS011;21436;52.348;20.928;2023-04-24T01:26:02;20.00;;;12.75;;
35326;SDS011;21436;52.348;20.928;2023-04-24T01:28:30;23.27;;;13.30;;
35326;SDS011;21436;52.348;20.928;2023-04-24T01:30:57;22.70;;;12.25;;
35326;SDS011;21436;52.348;20.928;2023-04-24T01:33:26;21.25;;;12.07;;
35326;SDS011;21436;52.348;20.928;2023-04-24T01:35:54;18.80;;;11.93;;
35326;SDS011;21436;52.348;20.928;2023-04-24T01:38:22;20.65;;;11.52;;
35326;SDS011;21436;52.348;20.928;2023-04-24T01:40:49;22.90;;;13.90;;
35326;SDS011;21436;52.348;20.928;2023-04-24T01:43:18;19.05;;;12.63;;
35326;SDS011;21436;52.348;20.928;2023-04-24T01:45:45;26.23;;;13.25;;
35326;SDS011;21436;52.348;20.928;2023-04-24T01:48:13;22.70;;;12.38;;
35326;SDS011;21436;52.348;20.928;2023-04-24T01:50:40;24.58;;;13.60;;
35326;SDS011;21436;52.348;20.928;2023-04-24T01:53:11;32.00;;;16.33;;
35326;SDS011;21436;52.348;20.928;2023-04-24T01:55:38;47.15;;;24.25;;
35326;SDS011;21436;52.348;20.928;2023-04-24T01:58:06;28.48;;;15.00;;
35326;SDS011;21436;52.348;20.928;2023-04-24T02:00:34;29.00;;;14.10;;
35326;SDS011;21436;52.348;20.928;2023-04-24T02:03:01;31.05;;;14.93;;
35326;SDS011;21436;52.348;20.928;2023-04-24T02:05:29;24.73;;;14.80;;
35326;SDS011;21436;52.348;20.928;2023-04-24T02:07:57;26.60;;;13.65;;
35326;SDS011;21436;52.348;20.928;2023-04-24T02:10:24;26.05;;;13.93;;
35326;SDS011;21436;52.348;20.928;2023-04-24T02:12:52;25.00;;;12.73;;
35326;SDS011;21436;52.348;20.928;2023-04-24T02:15:23;19.40;;;12.65;;
35326;SDS011;21436;52.348;20.928;2023-04-24T02:17:51;22.27;;;12.93;;
35326;SDS011;21436;52.348;20.928;2023-04-24T02:20:18;22.15;;;13.27;;
35326;SDS011;21436;52.348;20.928;2023-04-24T02:22:46;28.58;;;13.73;;
35326;SDS011;21436;52.348;20.928;2023-04-24T02:25:13;25.95;;;13.57;;
35326;SDS011;21436;52.348;20.928;2023-04-24T02:27:40;19.55;;;13.07;;
35326;SDS011;21436;52.348;20.928;2023-04-24T02:30:08;24.02;;;13.73;;
35326;SDS011;21436;52.348;20.928;2023-04-24T02:32:36;26.05;;;13.85;;
35326;SDS011;21436;52.348;20.928;2023-04-24T02:35:03;22.25;;;13.18;;
35326;SDS011;21436;52.348;20.928;2023-04-24T02:37:31;20.80;;;13.25;;
35326;SDS011;21436;52.348;20.928;2023-04-24T02:39:58;23.20;;;13.85;;
35326;SDS011;21436;52.348;20.928;2023-04-24T02:42:26;21.58;;;13.82;;
35326;SDS011;21436;52.348;20.928;2023-04-24T02:44:53;23.20;;;14.38;;
35326;SDS011;21436;52.348;20.928;2023-04-24T02:47:21;24.83;;;13.55;;
35326;SDS011;21436;52.348;20.928;2023-04-24T02:49:48;21.70;;;12.02;;
35326;SDS011;21436;52.348;20.928;2023-04-24T02:52:16;22.45;;;14.60;;
35326;SDS011;21436;52.348;20.928;2023-04-24T02:54:44;21.10;;;14.15;;
35326;SDS011;21436;52.348;20.928;2023-04-24T02:57:12;24.58;;;14.30;;
35326;SDS011;21436;52.348;20.928;2023-04-24T02:59:41;25.83;;;13.52;;
35326;SDS011;21436;52.348;20.928;2023-04-24T03:02:09;24.08;;;13.70;;
35326;SDS011;21436;52.348;20.928;2023-04-24T03:04:37;22.98;;;14.57;;
35326;SDS011;21436;52.348;20.928;2023-04-24T03:07:04;21.67;;;14.38;;
35326;SDS011;21436;52.348;20.928;2023-04-24T03:09:32;27.42;;;15.60;;
35326;SDS011;21436;52.348;20.928;2023-04-24T03:12:00;22.80;;;13.93;;
35326;SDS011;21436;52.348;20.928;2023-04-24T03:14:27;21.58;;;14.15;;
35326;SDS011;21436;52.348;20.928;2023-04-24T03:16:58;25.38;;;14.70;;
35326;SDS011;21436;52.348;20.928;2023-04-24T03:19:26;25.15;;;14.82;;
35326;SDS011;21436;52.348;20.928;2023-04-24T03:22:03;24.90;;;15.05;;
35326;SDS011;21436;52.348;20.928;2023-04-24T03:24:31;26.73;;;15.20;;
35326;SDS011;21436;52.348;20.928;2023-04-24T03:26:59;26.48;;;14.93;;
35326;SDS011;21436;52.348;20.928;2023-04-24T03:29:59;25.08;;;14.70;;
35326;SDS011;21436;52.348;20.928;2023-04-24T03:32:43;28.90;;;14.27;;
35326;SDS011;21436;52.348;20.928;2023-04-24T03:35:13;26.80;;;15.05;;
35326;SDS011;21436;52.348;20.928;2023-04-24T03:37:40;27.75;;;14.75;;
35326;SDS011;21436;52.348;20.928;2023-04-24T03:40:26;26.52;;;15.13;;
35326;SDS011;21436;52.348;20.928;2023-04-24T03:42:57;22.85;;;14.52;;
35326;SDS011;21436;52.348;20.928;2023-04-24T03:45:25;24.45;;;14.50;;
35326;SDS011;21436;52.348;20.928;2023-04-24T03:47:53;24.02;;;14.50;;
35326;SDS011;21436;52.348;20.928;2023-04-24T03:50:21;22.70;;;13.80;;
35326;SDS011;21436;52.348;20.928;2023-04-24T03:52:49;29.27;;;15.23;;
35326;SDS011;21436;52.348;20.928;2023-04-24T03:55:32;24.65;;;14.55;;
35326;SDS011;21436;52.348;20.928;2023-04-24T03:58:00;27.15;;;15.23;;
35326;SDS011;21436;52.348;20.928;2023-04-24T04:00:27;28.35;;;15.15;;
35326;SDS011;21436;52.348;20.928;2023-04-24T04:03:15;28.60;;;14.32;;
35326;SDS011;21436;52.348;20.928;2023-04-24T04:05:43;24.85;;;14.10;;
35326;SDS011;21436;52.348;20.928;2023-04-24T04:08:11;25.42;;;13.65;;
35326;SDS011;21436;52.348;20.928;2023-04-24T04:10:38;28.55;;;12.80;;
35326;SDS011;21436;52.348;20.928;2023-04-24T04:13:06;26.20;;;12.95;;
35326;SDS011;21436;52.348;20.928;2023-04-24T04:15:34;23.52;;;12.98;;
35326;SDS011;21436;52.348;20.928;2023-04-24T04:18:03;21.23;;;12.25;;
35326;SDS011;21436;52.348;20.928;2023-04-24T04:20:31;29.60;;;11.90;;
35326;SDS011;21436;52.348;20.928;2023-04-24T04:22:59;20.63;;;11.02;;
35326;SDS011;21436;52.348;20.928;2023-04-24T04:25:38;21.98;;;11.85;;
35326;SDS011;21436;52.348;20.928;2023-04-24T04:28:06;23.90;;;11.88;;
35326;SDS011;21436;52.348;20.928;2023-04-24T04:30:33;19.48;;;11.95;;
35326;SDS011;21436;52.348;20.928;2023-04-24T04:33:03;18.90;;;11.40;;
35326;SDS011;21436;52.348;20.928;2023-04-24T04:35:32;25.67;;;11.38;;
35326;SDS011;21436;52.348;20.928;2023-04-24T04:38:00;23.00;;;11.75;;
35326;SDS011;21436;52.348;20.928;2023-04-24T04:40:40;22.92;;;12.10;;
35326;SDS011;21436;52.348;20.928;2023-04-24T04:43:08;22.52;;;11.40;;
35326;SDS011;21436;52.348;20.928;2023-04-24T04:45:46;21.55;;;12.05;;
35326;SDS011;21436;52.348;20.928;2023-04-24T04:48:38;19.58;;;11.93;;
35326;SDS011;21436;52.348;20.928;2023-04-24T04:51:07;16.33;;;10.85;;
35326;SDS011;21436;52.348;20.928;2023-04-24T04:53:34;19.15;;;11.43;;
35326;SDS011;21436;52.348;20.928;2023-04-24T04:56:02;20.98;;;11.95;;
35326;SDS011;21436;52.348;20.928;2023-04-24T04:58:37;20.50;;;10.82;;
35326;SDS011;21436;52.348;20.928;2023-04-24T05:01:08;20.30;;;11.93;;
35326;SDS011;21436;52.348;20.928;2023-04-24T05:03:40;22.92;;;12.50;;
35326;SDS011;21436;52.348;20.928;2023-04-24T05:06:11;22.02;;;11.07;;
35326;SDS011;21436;52.348;20.928;2023-04-24T05:08:40;23.60;;;11.70;;
35326;SDS011;21436;52.348;20.928;2023-04-24T05:11:12;18.67;;;10.93;;
35326;SDS011;21436;52.348;20.928;2023-04-24T05:13:40;19.20;;;10.90;;
35326;SDS011;21436;52.348;20.928;2023-04-24T05:16:13;23.45;;;10.63;;
35326;SDS011;21436;52.348;20.928;2023-04-24T05:18:41;18.23;;;10.85;;
35326;SDS011;21436;52.348;20.928;2023-04-24T05:21:12;17.63;;;10.63;;
35326;SDS011;21436;52.348;20.928;2023-04-24T05:23:42;18.45;;;10.63;;
35326;SDS011;21436;52.348;20.928;2023-04-24T05:26:10;20.50;;;10.23;;
35326;SDS011;21436;52.348;20.928;2023-04-24T05:28:37;20.98;;;10.88;;
35326;SDS011;21436;52.348;20.928;2023-04-24T05:31:10;19.15;;;10.55;;
35326;SDS011;21436;52.348;20.928;2023-04-24T05:33:37;17.20;;;10.63;;
35326;SDS011;21436;52.348;20.928;2023-04-24T05:36:05;19.52;;;10.15;;
35326;SDS011;21436;52.348;20.928;2023-04-24T05:38:33;19.10;;;10.27;;
35326;SDS011;21436;52.348;20.928;2023-04-24T05:41:01;27.77;;;10.07;;
35326;SDS011;21436;52.348;20.928;2023-04-24T05:43:28;18.08;;;10.68;;
35326;SDS011;21436;52.348;20.928;2023-04-24T05:45:56;16.33;;;10.18;;
35326;SDS011;21436;52.348;20.928;2023-04-24T05:48:24;16.20;;;10.40;;
35326;SDS011;21436;52.348;20.928;2023-04-24T05:50:52;17.00;;;10.10;;
35326;SDS011;21436;52.348;20.928;2023-04-24T05:53:19;25.70;;;10.68;;
35326;SDS011;21436;52.348;20.928;2023-04-24T05:55:48;18.52;;;10.05;;
35326;SDS011;21436;52.348;20.928;2023-04-24T05:58:16;19.92;;;10.40;;
35326;SDS011;21436;52.348;20.928;2023-04-24T06:00:46;25.50;;;11.73;;
35326;SDS011;21436;52.348;20.928;2023-04-24T06:03:14;19.65;;;10.70;;
35326;SDS011;21436;52.348;20.928;2023-04-24T06:05:42;34.03;;;10.85;;
35326;SDS011;21436;52.348;20.928;2023-04-24T06:08:10;25.92;;;9.90;;
35326;SDS011;21436;52.348;20.928;2023-04-24T06:10:39;26.15;;;10.73;;
35326;SDS011;21436;52.348;20.928;2023-04-24T06:13:09;19.33;;;10.52;;
35326;SDS011;21436;52.348;20.928;2023-04-24T06:15:39;24.48;;;10.93;;
35326;SDS011;21436;52.348;20.928;2023-04-24T06:18:12;18.63;;;10.45;;
35326;SDS011;21436;52.348;20.928;2023-04-24T06:20:41;25.77;;;10.65;;
35326;SDS011;21436;52.348;20.928;2023-04-24T06:23:09;26.70;;;10.98;;
35326;SDS011;21436;52.348;20.928;2023-04-24T06:25:37;19.45;;;10.38;;
35326;SDS011;21436;52.348;20.928;2023-04-24T06:28:05;26.33;;;11.32;;
35326;SDS011;21436;52.348;20.928;2023-04-24T06:30:32;24.35;;;10.85;;
35326;SDS011;21436;52.348;20.928;2023-04-24T06:33:00;27.27;;;10.90;;
35326;SDS011;21436;52.348;20.928;2023-04-24T06:35:45;27.27;;;11.07;;
35326;SDS011;21436;52.348;20.928;2023-04-24T06:38:13;23.15;;;10.90;;
35326;SDS011;21436;52.348;20.928;2023-04-24T06:40:40;27.02;;;10.50;;
35326;SDS011;21436;52.348;20.928;2023-04-24T06:43:10;22.45;;;10.18;;
35326;SDS011;21436;52.348;20.928;2023-04-24T06:45:38;23.08;;;10.60;;
35326;SDS011;21436;52.348;20.928;2023-04-24T06:48:07;22.00;;;10.52;;
35326;SDS011;21436;52.348;20.928;2023-04-24T06:50:34;25.70;;;11.25;;
35326;SDS011;21436;52.348;20.928;2023-04-24T06:53:02;21.92;;;10.20;;
35326;SDS011;21436;52.348;20.928;2023-04-24T06:55:29;23.50;;;10.20;;
35326;SDS011;21436;52.348;20.928;2023-04-24T06:57:57;19.33;;;9.02;;
35326;SDS011;21436;52.348;20.928;2023-04-24T07:00:25;18.88;;;9.73;;
35326;SDS011;21436;52.348;20.928;2023-04-24T07:02:53;27.23;;;10.57;;
35326;SDS011;21436;52.348;20.928;2023-04-24T07:05:21;23.15;;;11.02;;
35326;SDS011;21436;52.348;20.928;2023-04-24T07:07:48;20.20;;;10.48;;
35326;SDS011;21436;52.348;20.928;2023-04-24T07:10:17;20.85;;;10.15;;
35326;SDS011;21436;52.348;20.928;2023-04-24T07:12:45;27.67;;;10.68;;
35326;SDS011;21436;52.348;20.928;2023-04-24T07:15:13;35.47;;;10.75;;
35326;SDS011;21436;52.348;20.928;2023-04-24T07:17:41;18.95;;;10.07;;
35326;SDS011;21436;52.348;20.928;2023-04-24T07:20:12;29.92;;;10.93;;
35326;SDS011;21436;52.348;20.928;2023-04-24T07:22:41;23.73;;;9.27;;
35326;SDS011;21436;52.348;20.928;2023-04-24T07:25:09;25.98;;;9.68;;
35326;SDS011;21436;52.348;20.928;2023-04-24T07:27:37;25.30;;;9.95;;
35326;SDS011;21436;52.348;20.928;2023-04-24T07:30:04;24.20;;;9.63;;
35326;SDS011;21436;52.348;20.928;2023-04-24T07:32:32;18.88;;;8.80;;
35326;SDS011;21436;52.348;20.928;2023-04-24T07:35:00;18.83;;;8.93;;
35326;SDS011;21436;52.348;20.928;2023-04-24T07:37:28;16.83;;;8.80;;
35326;SDS011;21436;52.348;20.928;2023-04-24T07:39:55;18.98;;;9.98;;
35326;SDS011;21436;52.348;20.928;2023-04-24T07:42:23;22.67;;;8.77;;
35326;SDS011;21436;52.348;20.928;2023-04-24T07:44:50;21.30;;;8.05;;
35326;SDS011;21436;52.348;20.928;2023-04-24T07:47:18;36.08;;;9.05;;
35326;SDS011;21436;52.348;20.928;2023-04-24T07:49:45;19.48;;;9.50;;
35326;SDS011;21436;52.348;20.928;2023-04-24T07:52:13;25.60;;;9.98;;
35326;SDS011;21436;52.348;20.928;2023-04-24T07:54:40;27.30;;;7.97;;
35326;SDS011;21436;52.348;20.928;2023-04-24T07:57:08;22.83;;;8.93;;
35326;SDS011;21436;52.348;20.928;2023-04-24T07:59:36;17.15;;;8.65;;
35326;SDS011;21436;52.348;20.928;2023-04-24T08:02:03;18.17;;;9.13;;
35326;SDS011;21436;52.348;20.928;2023-04-24T08:04:31;17.58;;;8.50;;
35326;SDS011;21436;52.348;20.928;2023-04-24T08:06:59;26.05;;;8.88;;
35326;SDS011;21436;52.348;20.928;2023-04-24T08:09:27;22.98;;;9.25;;
35326;SDS011;21436;52.348;20.928;2023-04-24T08:11:54;16.55;;;8.07;;
35326;SDS011;21436;52.348;20.928;2023-04-24T08:14:22;21.52;;;8.82;;
35326;SDS011;21436;52.348;20.928;2023-04-24T08:16:49;23.73;;;8.98;;
35326;SDS011;21436;52.348;20.928;2023-04-24T08:19:17;22.08;;;8.02;;
35326;SDS011;21436;52.348;20.928;2023-04-24T08:21:44;21.70;;;8.30;;
35326;SDS011;21436;52.348;20.928;2023-04-24T08:24:12;15.80;;;7.68;;
35326;SDS011;21436;52.348;20.928;2023-04-24T08:26:39;23.05;;;8.38;;
35326;SDS011;21436;52.348;20.928;2023-04-24T08:29:07;18.42;;;7.85;;
35326;SDS011;21436;52.348;20.928;2023-04-24T08:31:35;21.95;;;8.13;;
35326;SDS011;21436;52.348;20.928;2023-04-24T08:34:02;14.75;;;7.25;;
35326;SDS011;21436;52.348;20.928;2023-04-24T08:36:30;16.88;;;7.28;;
35326;SDS011;21436;52.348;20.928;2023-04-24T08:39:12;14.60;;;7.45;;
35326;SDS011;21436;52.348;20.928;2023-04-24T08:41:41;16.25;;;8.48;;
35326;SDS011;21436;52.348;20.928;2023-04-24T08:44:10;18.42;;;7.90;;
35326;SDS011;21436;52.348;20.928;2023-04-24T08:46:38;21.95;;;8.32;;
35326;SDS011;21436;52.348;20.928;2023-04-24T08:49:06;16.65;;;8.77;;
35326;SDS011;21436;52.348;20.928;2023-04-24T08:51:34;15.63;;;8.45;;
35326;SDS011;21436;52.348;20.928;2023-04-24T08:54:04;22.23;;;9.55;;
35326;SDS011;21436;52.348;20.928;2023-04-24T08:56:32;29.60;;;9.88;;
35326;SDS011;21436;52.348;20.928;2023-04-24T08:59:00;23.92;;;9.15;;
35326;SDS011;21436;52.348;20.928;2023-04-24T09:01:28;24.27;;;9.40;;
35326;SDS011;21436;52.348;20.928;2023-04-24T09:03:56;24.67;;;10.88;;
35326;SDS011;21436;52.348;20.928;2023-04-24T09:06:25;16.75;;;9.23;;
35326;SDS011;21436;52.348;20.928;2023-04-24T09:08:52;18.75;;;10.07;;
35326;SDS011;21436;52.348;20.928;2023-04-24T09:11:21;19.42;;;10.15;;
35326;SDS011;21436;52.348;20.928;2023-04-24T09:13:52;18.70;;;9.20;;
35326;SDS011;21436;52.348;20.928;2023-04-24T09:16:20;16.30;;;9.50;;
35326;SDS011;21436;52.348;20.928;2023-04-24T09:18:50;20.98;;;9.40;;
35326;SDS011;21436;52.348;20.928;2023-04-24T09:21:18;18.40;;;9.32;;
35326;SDS011;21436;52.348;20.928;2023-04-24T09:23:57;16.48;;;9.07;;
35326;SDS011;21436;52.348;20.928;2023-04-24T09:26:30;19.00;;;9.32;;
35326;SDS011;21436;52.348;20.928;2023-04-24T09:29:01;15.07;;;9.70;;
35326;SDS011;21436;52.348;20.928;2023-04-24T09:31:30;21.98;;;9.88;;
35326;SDS011;21436;52.348;20.928;2023-04-24T09:33:58;22.17;;;9.50;;
35326;SDS011;21436;52.348;20.928;2023-04-24T09:36:29;18.38;;;9.55;;
35326;SDS011;21436;52.348;20.928;2023-04-24T09:39:01;20.48;;;9.45;;
35326;SDS011;21436;52.348;20.928;2023-04-24T09:41:29;21.45;;;8.70;;
35326;SDS011;21436;52.348;20.928;2023-04-24T09:43:57;18.40;;;7.90;;
35326;SDS011;21436;52.348;20.928;2023-04-24T09:46:37;36.65;;;10.63;;
35326;SDS011;21436;52.348;20.928;2023-04-24T09:49:22;36.95;;;9.63;;
35326;SDS011;21436;52.348;20.928;2023-04-24T09:52:04;38.30;;;9.30;;
35326;SDS011;21436;52.348;20.928;2023-04-24T09:54:33;18.10;;;8.32;;
35326;SDS011;21436;52.348;20.928;2023-04-24T09:57:01;22.25;;;8.60;;
35326;SDS011;21436;52.348;20.928;2023-04-24T09:59:29;15.93;;;7.80;;
35326;SDS011;21436;52.348;20.928;2023-04-24T10:01:57;17.90;;;8.15;;
35326;SDS011;21436;52.348;20.928;2023-04-24T10:04:27;26.67;;;8.73;;
35326;SDS011;21436;52.348;20.928;2023-04-24T10:06:56;14.43;;;7.95;;
35326;SDS011;21436;52.348;20.928;2023-04-24T10:09:25;15.68;;;7.70;;
35326;SDS011;21436;52.348;20.928;2023-04-24T10:11:54;12.07;;;7.18;;
35326;SDS011;21436;52.348;20.928;2023-04-24T10:14:24;14.48;;;7.93;;
35326;SDS011;21436;52.348;20.928;2023-04-24T10:16:53;19.65;;;7.15;;
35326;SDS011;21436;52.348;20.928;2023-04-24T10:19:21;14.43;;;7.80;;
35326;SDS011;21436;52.348;20.928;2023-04-24T10:21:50;13.88;;;7.15;;
35326;SDS011;21436;52.348;20.928;2023-04-24T10:24:17;29.15;;;7.15;;
35326;SDS011;21436;52.348;20.928;2023-04-24T10:26:45;15.63;;;6.82;;
35326;SDS011;21436;52.348;20.928;2023-04-24T10:29:16;15.70;;;6.45;;
35326;SDS011;21436;52.348;20.928;2023-04-24T10:31:44;12.13;;;6.65;;
35326;SDS011;21436;52.348;20.928;2023-04-24T10:34:14;96.50;;;10.55;;
35326;SDS011;21436;52.348;20.928;2023-04-24T10:36:46;14.05;;;6.38;;
35326;SDS011;21436;52.348;20.928;2023-04-24T10:39:16;11.70;;;6.07;;
35326;SDS011;21436;52.348;20.928;2023-04-24T10:41:44;8.45;;;5.40;;
35326;SDS011;21436;52.348;20.928;2023-04-24T10:44:13;10.77;;;5.88;;
35326;SDS011;21436;52.348;20.928;2023-04-24T10:46:46;30.85;;;7.00;;
35326;SDS011;21436;52.348;20.928;2023-04-24T10:49:16;11.18;;;6.07;;
35326;SDS011;21436;52.348;20.928;2023-04-24T10:51:48;14.85;;;5.82;;
35326;SDS011;21436;52.348;20.928;2023-04-24T10:54:35;8.85;;;5.75;;
35326;SDS011;21436;52.348;20.928;2023-04-24T10:59:51;11.40;;;5.88;;
35326;SDS011;21436;52.348;20.928;2023-04-24T11:02:48;10.07;;;6.20;;
35326;SDS011;21436;52.348;20.928;2023-04-24T11:05:18;10.25;;;6.07;;
35326;SDS011;21436;52.348;20.928;2023-04-24T11:19:21;17.52;;;7.63;;
35326;SDS011;21436;52.348;20.928;2023-04-24T11:22:03;10.25;;;6.47;;
35326;SDS011;21436;52.348;20.928;2023-04-24T11:27:29;11.40;;;7.00;;
35326;SDS011;21436;52.348;20.928;2023-04-24T11:32:47;9.40;;;6.82;;
35326;SDS011;21436;52.348;20.928;2023-04-24T11:35:19;11.48;;;6.60;;
35326;SDS011;21436;52.348;20.928;2023-04-24T11:37:55;11.80;;;6.80;;
35326;SDS011;21436;52.348;20.928;2023-04-24T11:40:26;10.73;;;6.45;;
35326;SDS011;21436;52.348;20.928;2023-04-24T11:42:53;10.50;;;6.10;;
35326;SDS011;21436;52.348;20.928;2023-04-24T11:45:25;10.13;;;6.28;;
35326;SDS011;21436;52.348;20.928;2023-04-24T11:47:54;9.10;;;6.43;;
35326;SDS011;21436;52.348;20.928;2023-04-24T11:50:22;8.77;;;6.45;;
35326;SDS011;21436;52.348;20.928;2023-04-24T11:52:50;7.80;;;6.22;;
35326;SDS011;21436;52.348;20.928;2023-04-24T11:57:46;7.97;;;5.43;;
35326;SDS011;21436;52.348;20.928;2023-04-24T12:00:16;10.77;;;5.63;;
35326;SDS011;21436;52.348;20.928;2023-04-24T12:02:46;13.85;;;6.18;;
35326;SDS011;21436;52.348;20.928;2023-04-24T12:05:21;11.02;;;6.60;;
35326;SDS011;21436;52.348;20.928;2023-04-24T12:07:54;9.10;;;5.55;;
35326;SDS011;21436;52.348;20.928;2023-04-24T12:10:24;17.75;;;6.40;;
35326;SDS011;21436;52.348;20.928;2023-04-24T12:12:53;5.63;;;4.90;;
35326;SDS011;21436;52.348;20.928;2023-04-24T12:15:23;7.57;;;5.10;;
35326;SDS011;21436;52.348;20.928;2023-04-24T12:17:51;6.95;;;5.70;;
35326;SDS011;21436;52.348;20.928;2023-04-24T12:20:24;5.35;;;4.50;;
35326;SDS011;21436;52.348;20.928;2023-04-24T12:22:54;7.15;;;4.70;;
35326;SDS011;21436;52.348;20.928;2023-04-24T12:25:24;9.93;;;5.28;;
35326;SDS011;21436;52.348;20.928;2023-04-24T12:28:15;6.55;;;5.30;;
35326;SDS011;21436;52.348;20.928;2023-04-24T12:30:43;9.07;;;5.13;;
35326;SDS011;21436;52.348;20.928;2023-04-24T12:33:11;6.68;;;4.65;;
35326;SDS011;21436;52.348;20.928;2023-04-24T12:35:40;9.57;;;4.78;;
35326;SDS011;21436;52.348;20.928;2023-04-24T12:38:08;8.02;;;4.75;;
35326;SDS011;21436;52.348;20.928;2023-04-24T12:40:37;7.70;;;4.40;;
35326;SDS011;21436;52.348;20.928;2023-04-24T12:43:18;6.40;;;4.80;;
35326;SDS011;21436;52.348;20.928;2023-04-24T12:45:47;6.72;;;4.65;;
35326;SDS011;21436;52.348;20.928;2023-04-24T12:48:15;8.90;;;5.38;;
35326;SDS011;21436;52.348;20.928;2023-04-24T12:50:43;8.07;;;5.45;;
35326;SDS011;21436;52.348;20.928;2023-04-24T12:53:12;7.68;;;5.80;;
35326;SDS011;21436;52.348;20.928;2023-04-24T12:55:40;7.72;;;4.45;;
35326;SDS011;21436;52.348;20.928;2023-04-24T12:58:08;6.28;;;4.88;;
35326;SDS011;21436;52.348;20.928;2023-04-24T13:00:36;7.32;;;5.15;;
35326;SDS011;21436;52.348;20.928;2023-04-24T13:03:04;8.63;;;5.45;;
35326;SDS011;21436;52.348;20.928;2023-04-24T13:05:32;24.88;;;5.68;;
35326;SDS011;21436;52.348;20.928;2023-04-24T13:07:59;72.97;;;8.77;;
35326;SDS011;21436;52.348;20.928;2023-04-24T13:10:27;29.60;;;6.45;;
35326;SDS011;21436;52.348;20.928;2023-04-24T13:12:54;19.75;;;5.00;;
35326;SDS011;21436;52.348;20.928;2023-04-24T13:15:22;26.17;;;6.00;;
35326;SDS011;21436;52.348;20.928;2023-04-24T13:17:50;14.32;;;4.28;;
35326;SDS011;21436;52.348;20.928;2023-04-24T13:20:18;15.05;;;4.38;;
35326;SDS011;21436;52.348;20.928;2023-04-24T13:22:45;12.57;;;3.92;;
35326;SDS011;21436;52.348;20.928;2023-04-24T13:25:13;11.05;;;3.95;;
35326;SDS011;21436;52.348;20.928;2023-04-24T13:27:43;13.00;;;3.88;;
35326;SDS011;21436;52.348;20.928;2023-04-24T13:30:11;12.35;;;4.43;;
35326;SDS011;21436;52.348;20.928;2023-04-24T13:32:39;8.32;;;5.07;;
35326;SDS011;21436;52.348;20.928;2023-04-24T13:35:07;7.55;;;4.50;;
35326;SDS011;21436;52.348;20.928;2023-04-24T13:37:35;5.93;;;3.90;;
35326;SDS011;21436;52.348;20.928;2023-04-24T13:40:02;6.88;;;4.20;;
35326;SDS011;21436;52.348;20.928;2023-04-24T13:42:33;5.55;;;4.05;;
35326;SDS011;21436;52.348;20.928;2023-04-24T13:45:01;8.93;;;4.55;;
35326;SDS011;21436;52.348;20.928;2023-04-24T13:47:48;11.80;;;4.50;;
35326;SDS011;21436;52.348;20.928;2023-04-24T13:50:18;10.68;;;5.05;;
35326;SDS011;21436;52.348;20.928;2023-04-24T13:52:46;6.10;;;4.35;;
35326;SDS011;21436;52.348;20.928;2023-04-24T13:55:13;14.85;;;4.85;;
35326;SDS011;21436;52.348;20.928;2023-04-24T13:57:41;6.10;;;3.90;;
35326;SDS011;21436;52.348;20.928;2023-04-24T14:00:09;6.80;;;4.05;;
35326;SDS011;21436;52.348;20.928;2023-04-24T14:02:38;7.65;;;4.20;;
35326;SDS011;21436;52.348;20.928;2023-04-24T14:05:06;7.40;;;4.25;;
35326;SDS011;21436;52.348;20.928;2023-04-24T14:07:33;5.88;;;4.18;;
35326;SDS011;21436;52.348;20.928;2023-04-24T14:10:01;8.30;;;4.18;;
35326;SDS011;21436;52.348;20.928;2023-04-24T14:12:28;6.43;;;4.32;;
35326;SDS011;21436;52.348;20.928;2023-04-24T14:14:56;7.40;;;3.95;;
35326;SDS011;21436;52.348;20.928;2023-04-24T14:17:24;5.80;;;4.30;;
35326;SDS011;21436;52.348;20.928;2023-04-24T14:19:51;8.50;;;4.05;;
35326;SDS011;21436;52.348;20.928;2023-04-24T14:22:19;7.10;;;4.20;;
35326;SDS011;21436;52.348;20.928;2023-04-24T14:24:47;6.07;;;4.13;;
35326;SDS011;21436;52.348;20.928;2023-04-24T14:27:14;10.50;;;4.22;;
35326;SDS011;21436;52.348;20.928;2023-04-24T14:29:42;20.02;;;10.90;;
35326;SDS011;21436;52.348;20.928;2023-04-24T14:32:10;8.45;;;5.43;;
35326;SDS011;21436;52.348;20.928;2023-04-24T14:34:38;9.65;;;4.68;;
35326;SDS011;21436;52.348;20.928;2023-04-24T14:37:06;16.13;;;9.30;;
35326;SDS011;21436;52.348;20.928;2023-04-24T14:39:33;16.60;;;7.57;;
35326;SDS011;21436;52.348;20.928;2023-04-24T14:42:01;5.60;;;3.78;;
35326;SDS011;21436;52.348;20.928;2023-04-24T14:44:29;77.25;;;13.43;;
35326;SDS011;21436;52.348;20.928;2023-04-24T14:46:56;27.88;;;9.23;;
35326;SDS011;21436;52.348;20.928;2023-04-24T14:49:24;11.30;;;6.25;;
35326;SDS011;21436;52.348;20.928;2023-04-24T14:51:51;21.45;;;8.73;;